Time;durP1;ratioP1;P1;durP2;ratioP2;P2;SDS_P1;SDS_P2;PMS_P1;PMS_P2;Temp;Humidity;BMP_temperature;BMP_pressure;BME280_temperature;BME280_humidity;BME280_pressure;Samples;Min_cycle;Max_cycle;Signal;HPM_P1;HPM_P2
2021/11/16 00:00:03;;;;;;;;;;;;;;;28.10;77.75;100884.50;4957689;28;70293;-37
2021/11/16 00:02:40;;;;;;;;;;;;;;;28.11;77.96;100889.69;4955252;28;66279;-37
2021/11/16 00:05:11;;;;;;;;;;;;;;;28.15;77.88;100892.81;4959265;28;69417;-35
2021/11/16 00:07:52;;;;;;;;;;;;;;;28.19;77.86;100894.88;4956702;28;65909;-36
2021/11/16 00:10:40;;;;;;;;;;;;;;;28.22;77.83;100893.66;4945293;28;68896;-35
2021/11/16 00:13:41;;;;;;;;;;;;;;;28.16;78.16;100884.50;4948768;28;66023;-37
2021/11/16 00:16:31;;;;;;;;;;;;;;;28.26;78.22;100895.75;4934653;28;70187;-37
2021/11/16 00:19:15;;;;;;;;;;;;;;;28.29;78.53;100906.16;5026479;28;65399;-37
2021/11/16 00:22:04;;;;;;;;;;;;;;;28.34;78.92;100908.25;5026661;28;69886;-37
2021/11/16 00:24:41;;;;;;;;;;;;;;;28.29;78.17;100905.31;5031801;28;66574;-37
2021/11/16 00:27:25;;;;;;;;;;;;;;;28.26;77.88;100916.50;5032225;28;70554;-38
2021/11/16 00:30:24;;;;;;;;;;;;;;;28.26;78.13;100924.59;5031799;28;66404;-38
2021/11/16 00:33:21;;;;;;;;;;;;;;;28.24;77.66;100929.38;5023474;28;69431;-36
2021/11/16 00:36:13;;;;;;;;;;;;;;;28.25;78.28;100936.41;5057119;28;66107;-36
2021/11/16 00:39:11;;;;;;;;;;;;;;;28.35;77.80;100953.06;5046536;28;69712;-36
2021/11/16 00:42:04;;;;;;;;;;;;;;;28.42;76.46;100953.97;5057438;28;66768;-37
2021/11/16 00:44:51;;;;;;;;;;;;;;;28.49;76.03;100954.81;5020997;28;70225;-37
2021/11/16 00:47:48;;;;;;;;;;;;;;;28.57;75.38;100966.47;5038786;28;66711;-37
2021/11/16 00:50:53;;;;;;;;;;;;;;;28.62;74.75;100974.78;5059546;28;69956;-36
2021/11/16 00:53:58;;;;;;;;;;;;;;;28.67;74.67;100977.72;5041336;28;65436;-37
2021/11/16 00:56:44;;;;;;;;;;;;;;;28.71;74.13;100987.06;5053037;28;69432;-38
2021/11/16 00:59:33;;;;;;;;;;;;;;;28.74;74.21;100994.75;5031154;28;66204;-37
2021/11/16 01:02:34;;;;;;;;;;;;;;;28.72;74.28;100986.00;5070737;27;69316;-39
2021/11/16 01:05:22;;;;;;;;;;;;;;;28.80;74.01;100999.31;5075685;27;66374;-38
2021/11/16 01:08:12;;;;;;;;;;;;;;;28.83;73.76;101003.50;5074449;27;70002;-37
2021/11/16 01:11:03;;;;;;;;;;;;;;;28.86;73.74;101003.94;5071853;27;66497;-37
2021/11/16 01:14:05;;;;;;;;;;;;;;;28.89;73.68;101003.53;5073078;27;70789;-35
2021/11/16 01:16:55;;;;;;;;;;;;;;;28.91;73.08;101001.44;5058913;27;65370;-37
2021/11/16 01:19:42;;;;;;;;;;;;;;;28.94;73.32;101000.19;5070329;27;70213;-37
2021/11/16 01:22:37;;;;;;;;;;;;;;;28.95;73.37;101013.50;5075794;27;66351;-36
2021/11/16 01:25:43;;;;;;;;;;;;;;;28.99;73.19;101015.78;5073475;27;69578;-37
2021/11/16 01:28:22;;;;;;;;;;;;;;;29.00;73.11;101014.75;5072248;27;65461;-36
2021/11/16 01:31:07;;;;;;;;;;;;;;;29.02;72.58;101018.09;5068729;27;69049;-36
2021/11/16 01:34:09;;;;;;;;;;;;;;;29.03;72.61;101011.63;5073079;27;65458;-37
2021/11/16 01:37:20;;;;;;;;;;;;;;;29.06;72.65;101008.56;5070634;27;70421;-38
2021/11/16 01:40:14;;;;;;;;;;;;;;;29.07;72.61;101018.34;5070528;27;66850;-37
2021/11/16 01:43:18;;;;;;;;;;;;;;;29.09;72.85;101009.00;5070924;27;70495;-37
2021/11/16 01:46:22;;;;;;;;;;;;;;;29.11;72.56;101011.47;5072515;27;66087;-37
2021/11/16 01:49:05;;;;;;;;;;;;;;;29.13;72.72;101007.53;5068425;27;69815;-37
2021/11/16 01:52:01;;;;;;;;;;;;;;;29.14;72.78;101006.53;5059069;28;66796;-37
2021/11/16 01:54:49;;;;;;;;;;;;;;;29.16;72.27;101003.59;5068767;27;70049;-36
2021/11/16 02:01:05;;;;;;;;;;;;;;;29.20;72.39;101004.88;5073174;27;69115;-37
2021/11/16 02:03:47;;;;;;;;;;;;;;;29.22;72.02;100997.38;5077773;27;66140;-37
2021/11/16 02:06:54;;;;;;;;;;;;;;;29.24;72.07;101002.56;5073394;27;69468;-38
2021/11/16 02:09:50;;;;;;;;;;;;;;;29.25;72.07;101002.34;5075130;27;66033;-37
2021/11/16 02:12:36;;;;;;;;;;;;;;;29.26;72.36;101004.03;5054751;28;68871;-37
2021/11/16 02:15:31;;;;;;;;;;;;;;;29.29;71.95;100998.22;5070097;27;65448;-37
2021/11/16 02:18:12;;;;;;;;;;;;;;;29.30;71.85;100999.88;5075101;27;69873;-37
2021/11/16 02:21:06;;;;;;;;;;;;;;;29.32;72.30;100995.09;5054684;27;65746;-36
2021/11/16 02:23:54;;;;;;;;;;;;;;;29.34;72.18;100995.72;5066148;27;69433;-37
2021/11/16 02:26:55;;;;;;;;;;;;;;;29.36;72.11;100998.19;5074542;27;66612;-37
2021/11/16 02:29:56;;;;;;;;;;;;;;;29.37;71.52;100995.31;5063626;28;69789;-37
2021/11/16 02:32:47;;;;;;;;;;;;;;;29.39;72.06;101000.50;5073575;27;66150;-37
2021/11/16 02:35:24;;;;;;;;;;;;;;;29.42;71.63;101007.34;5038204;27;69204;-36
2021/11/16 02:38:10;;;;;;;;;;;;;;;29.37;71.88;100995.31;5074822;27;66516;-37
2021/11/16 02:40:57;;;;;;;;;;;;;;;29.45;71.82;101004.22;5070677;27;69515;-36
2021/11/16 02:44:08;;;;;;;;;;;;;;;29.47;71.78;101004.88;5077795;27;66500;-37
2021/11/16 02:46:48;;;;;;;;;;;;;;;29.48;71.32;101007.38;5068169;27;69734;-36
2021/11/16 02:49:35;;;;;;;;;;;;;;;29.50;71.29;100994.47;5070916;27;65837;-36
2021/11/16 02:52:23;;;;;;;;;;;;;;;29.52;71.59;100986.16;5055131;28;71072;-37
2021/11/16 02:55:07;;;;;;;;;;;;;;;29.54;71.11;100992.19;5066478;27;66298;-36
2021/11/16 02:57:47;;;;;;;;;;;;;;;29.56;71.49;100998.19;5072374;27;70058;-36
2021/11/16 03:00:34;;;;;;;;;;;;;;;29.57;71.10;100997.19;5070178;27;67948;-37
2021/11/16 03:03:19;;;;;;;;;;;;;;;29.59;71.51;100987.00;5056354;27;69973;-37
2021/11/16 03:06:14;;;;;;;;;;;;;;;29.60;71.50;100991.34;5069468;27;66479;-36
2021/11/16 03:08:53;;;;;;;;;;;;;;;29.62;71.29;100992.81;5067779;27;69051;-37
2021/11/16 03:11:44;;;;;;;;;;;;;;;29.64;70.98;100995.31;5073426;27;66497;-36
2021/11/16 03:14:32;;;;;;;;;;;;;;;29.67;71.33;100994.06;5074195;27;69645;-36
2021/11/16 03:17:14;;;;;;;;;;;;;;;29.68;71.37;100983.06;5059964;27;66892;-37
2021/11/16 03:19:46;;;;;;;;;;;;;;;29.69;71.23;100987.41;5072156;27;70165;-37
2021/11/16 03:22:29;;;;;;;;;;;;;;;29.71;70.78;100985.34;5071973;27;65446;-36
2021/11/16 03:25:11;;;;;;;;;;;;;;;29.74;71.00;100993.03;5071973;27;69981;-36
2021/11/16 03:28:01;;;;;;;;;;;;;;;29.75;71.13;100981.16;5058475;28;65782;-37
2021/11/16 03:30:39;;;;;;;;;;;;;;;29.76;70.73;100974.72;5071527;27;70473;-37
2021/11/16 03:33:11;;;;;;;;;;;;;;;29.77;71.06;100968.28;5072795;27;65789;-36
2021/11/16 03:35:42;;;;;;;;;;;;;;;29.81;70.61;100968.66;5057562;28;69953;-38
2021/11/16 03:38:14;;;;;;;;;;;;;;;29.82;70.87;100968.47;5077042;27;66102;-37
2021/11/16 03:40:51;;;;;;;;;;;;;;;29.84;70.55;100955.59;5075158;27;70365;-38
2021/11/16 03:43:28;;;;;;;;;;;;;;;29.88;70.36;100960.56;5075262;27;65798;-37
2021/11/16 03:46:00;;;;;;;;;;;;;;;29.91;70.44;100952.03;5075962;27;69817;-38
2021/11/16 03:48:34;;;;;;;;;;;;;;;29.92;70.29;100959.94;5075502;27;66229;-37
2021/11/16 03:51:04;;;;;;;;;;;;;;;29.95;70.30;100954.09;5077558;27;68884;-37
2021/11/16 03:53:36;;;;;;;;;;;;;;;29.97;70.57;100946.59;5076198;27;66186;-37
2021/11/16 03:56:07;;;;;;;;;;;;;;;29.99;70.57;100949.09;5042428;28;70706;-38
2021/11/16 03:58:40;;;;;;;;;;;;;;;30.01;70.19;100947.00;5057623;28;65488;-36
2021/11/16 04:01:16;;;;;;;;;;;;;;;30.03;70.36;100939.50;5073805;27;68561;-37
2021/11/16 04:03:48;;;;;;;;;;;;;;;30.05;70.52;100926.59;5075561;27;65490;-37
2021/11/16 04:06:21;;;;;;;;;;;;;;;30.08;69.86;100931.56;5077425;27;69520;-37
2021/11/16 04:08:51;;;;;;;;;;;;;;;30.09;69.91;100922.44;5074805;27;66770;-37
2021/11/16 04:11:28;;;;;;;;;;;;;;;30.12;70.21;100927.41;5075279;27;70148;-37
2021/11/16 04:14:09;;;;;;;;;;;;;;;30.14;69.71;100924.47;5066648;27;66355;-37
2021/11/16 04:16:39;;;;;;;;;;;;;;;30.16;69.60;100923.22;5075547;27;70071;-37
2021/11/16 04:19:14;;;;;;;;;;;;;;;30.18;69.62;100915.72;5072599;27;65548;-37
2021/11/16 04:21:44;;;;;;;;;;;;;;;30.21;69.66;100904.47;5073303;27;70236;-37
2021/11/16 04:24:17;;;;;;;;;;;;;;;30.23;69.51;100896.19;5072002;27;66425;-37
2021/11/16 04:26:49;;;;;;;;;;;;;;;30.25;69.53;100888.66;5073546;27;69510;-37
2021/11/16 04:29:23;;;;;;;;;;;;;;;30.26;69.36;100880.34;5075715;27;65257;-37
2021/11/16 04:31:53;;;;;;;;;;;;;;;30.30;69.40;100878.03;5073709;27;70158;-37
2021/11/16 04:34:25;;;;;;;;;;;;;;;30.32;69.63;100873.22;5074540;27;65880;-37
2021/11/16 04:36:55;;;;;;;;;;;;;;;30.34;69.42;100871.16;5075476;27;69456;-37
2021/11/16 04:39:25;;;;;;;;;;;;;;;30.36;69.78;100862.78;5077339;27;65564;-37
2021/11/16 04:41:56;;;;;;;;;;;;;;;30.39;69.64;100857.75;5074161;27;69737;-37
2021/11/16 04:44:29;;;;;;;;;;;;;;;30.42;69.21;100845.69;5076349;27;66779;-37
2021/11/16 04:47:01;;;;;;;;;;;;;;;30.44;69.65;100843.59;5063413;27;69163;-36
2021/11/16 04:49:44;;;;;;;;;;;;;;;30.46;69.63;100841.50;5075818;27;65702;-37
2021/11/16 05:02:59;;;;;;;;;;;;;;;30.57;69.28;100811.03;5076680;27;70115;-37
2021/11/16 05:05:29;;;;;;;;;;;;;;;30.60;69.71;100805.16;5074794;27;66601;-36
2021/11/16 05:08:01;;;;;;;;;;;;;;;30.56;69.50;100793.09;5062163;27;70078;-36
2021/11/16 05:10:31;;;;;;;;;;;;;;;30.64;69.57;100794.72;5076693;27;66080;-38
2021/11/16 05:13:02;;;;;;;;;;;;;;;30.66;69.30;100792.63;5076106;27;70366;-38
2021/11/16 05:15:34;;;;;;;;;;;;;;;30.68;69.58;100796.78;5076373;27;66359;-36
2021/11/16 05:18:05;;;;;;;;;;;;;;;30.67;68.96;100784.28;5077722;27;69355;-37
2021/11/16 05:20:36;;;;;;;;;;;;;;;30.72;69.10;100780.91;5075854;27;66224;-37
2021/11/16 05:23:06;;;;;;;;;;;;;;;30.75;69.54;100771.50;5071460;27;70656;-38
2021/11/16 05:25:37;;;;;;;;;;;;;;;30.76;69.33;100768.59;5076095;27;66078;-37
2021/11/16 05:28:07;;;;;;;;;;;;;;;30.79;69.33;100772.75;5078171;27;69727;-36
2021/11/16 05:30:37;;;;;;;;;;;;;;;30.80;69.10;100755.47;5076285;27;66280;-36
2021/11/16 05:33:07;;;;;;;;;;;;;;;30.82;69.14;100747.94;5076910;27;70137;-37
2021/11/16 05:35:40;;;;;;;;;;;;;;;30.84;68.97;100746.69;5075322;27;65644;-37
2021/11/16 05:38:23;;;;;;;;;;;;;;;30.79;69.18;100732.13;5074464;27;70576;-37
2021/11/16 05:40:54;;;;;;;;;;;;;;;30.87;68.94;100740.81;5088682;27;66742;-37
2021/11/16 05:43:25;;;;;;;;;;;;;;;30.89;68.90;100741.38;5074926;27;69520;-37
2021/11/16 05:45:56;;;;;;;;;;;;;;;30.92;69.33;100734.69;5074636;27;65360;-37
2021/11/16 05:48:34;;;;;;;;;;;;;;;30.93;69.02;100733.66;5076269;27;70026;-37
2021/11/16 05:51:06;;;;;;;;;;;;;;;30.96;68.61;100733.22;5076249;27;66465;-36
2021/11/16 05:53:38;;;;;;;;;;;;;;;30.97;68.62;100729.44;5074805;27;69155;-37
2021/11/16 05:56:11;;;;;;;;;;;;;;;31.00;69.11;100728.16;5069196;27;66512;-36
2021/11/16 05:58:42;;;;;;;;;;;;;;;31.00;68.79;100723.56;5075590;27;70118;-36
2021/11/16 06:01:12;;;;;;;;;;;;;;;31.02;69.07;100718.75;5074331;27;66275;-36
2021/11/16 06:03:50;;;;;;;;;;;;;;;31.02;68.52;100705.22;5073913;27;69969;-36
2021/11/16 06:06:24;;;;;;;;;;;;;;;31.05;68.43;100703.94;5075388;27;65740;-37
2021/11/16 06:08:55;;;;;;;;;;;;;;;30.93;68.73;100690.31;5075804;27;70101;-37
2021/11/16 06:11:26;;;;;;;;;;;;;;;31.08;68.80;100700.78;5075898;27;66245;-37
2021/11/16 06:13:57;;;;;;;;;;;;;;;31.10;68.46;100709.53;5073466;27;69944;-37
2021/11/16 06:16:27;;;;;;;;;;;;;;;31.11;68.27;100703.03;5071772;27;65605;-37
2021/11/16 06:18:59;;;;;;;;;;;;;;;31.03;68.31;100685.19;5073252;27;69462;-37
2021/11/16 06:21:29;;;;;;;;;;;;;;;31.15;68.40;100693.41;5074330;28;65999;-36
2021/11/16 06:24:00;;;;;;;;;;;;;;;31.18;68.09;100682.13;5076050;27;69825;-38
2021/11/16 06:26:33;;;;;;;;;;;;;;;31.20;68.18;100681.88;5076117;27;67196;-36
2021/11/16 06:29:04;;;;;;;;;;;;;;;31.22;68.47;100674.34;5074108;27;70194;-36
2021/11/16 06:31:35;;;;;;;;;;;;;;;31.23;68.09;100673.28;5075546;27;66615;-36
2021/11/16 06:34:07;;;;;;;;;;;;;;;31.26;67.98;100662.00;5072945;27;70449;-37
2021/11/16 06:36:40;;;;;;;;;;;;;;;31.29;68.21;100661.56;5074793;27;66278;-37
2021/11/16 06:39:15;;;;;;;;;;;;;;;31.31;67.74;100645.88;5076831;27;70118;-37
2021/11/16 06:41:46;;;;;;;;;;;;;;;31.34;67.92;100648.13;5073942;27;66048;-37
2021/11/16 06:44:18;;;;;;;;;;;;;;;31.35;68.15;100642.50;5073785;27;70785;-37
2021/11/16 06:46:49;;;;;;;;;;;;;;;31.37;68.25;100636.84;5075809;27;66867;-37
2021/11/16 06:49:19;;;;;;;;;;;;;;;31.41;67.91;100637.25;5072296;27;70437;-36
2021/11/16 06:51:51;;;;;;;;;;;;;;;31.43;67.58;100630.53;5076045;27;65532;-35
2021/11/16 06:54:25;;;;;;;;;;;;;;;31.43;67.88;100627.81;5076015;27;69762;-37
2021/11/16 06:56:57;;;;;;;;;;;;;;;31.46;67.51;100630.06;5075163;27;65876;-36
2021/11/16 06:59:27;;;;;;;;;;;;;;;31.48;67.99;100627.97;5075726;27;70268;-36
2021/11/16 07:01:58;;;;;;;;;;;;;;;31.51;67.96;100615.81;5074403;27;66508;-37
2021/11/16 07:04:54;;;;;;;;;;;;;;;31.53;67.61;100611.00;5075468;27;70015;-37
2021/11/16 07:07:25;;;;;;;;;;;;;;;31.55;67.41;100612.41;5063320;27;65593;-36
2021/11/16 07:09:59;;;;;;;;;;;;;;;31.57;67.16;100604.88;5072160;27;70183;-36
2021/11/16 07:12:31;;;;;;;;;;;;;;;31.60;67.17;100609.84;5074685;27;65801;-37
2021/11/16 07:15:15;;;;;;;;;;;;;;;31.64;67.50;100598.53;5089576;27;69004;-37
2021/11/16 07:17:47;;;;;;;;;;;;;;;31.58;67.21;100584.00;5070371;27;65868;-37
2021/11/16 07:20:25;;;;;;;;;;;;;;;31.69;67.15;100601.38;5088879;27;63839;-37
2021/11/16 07:23:00;;;;;;;;;;;;;;;31.71;67.37;100610.94;5071222;27;66761;-37
2021/11/16 07:25:41;;;;;;;;;;;;;;;31.73;67.23;100618.81;5071040;27;69263;-37
2021/11/16 07:28:16;;;;;;;;;;;;;;;31.70;66.90;100620.09;5072783;27;66815;-37
2021/11/16 07:30:49;;;;;;;;;;;;;;;31.76;66.91;100627.34;5071010;27;68560;-37
2021/11/16 07:33:23;;;;;;;;;;;;;;;31.77;67.03;100611.88;5072715;27;65395;-38
2021/11/16 07:35:55;;;;;;;;;;;;;;;31.78;66.67;100610.81;5072089;27;70893;-38
2021/11/16 07:38:43;;;;;;;;;;;;;;;31.79;66.54;100607.88;5069964;27;66362;-37
2021/11/16 07:41:24;;;;;;;;;;;;;;;31.80;66.65;100598.69;5072748;27;70317;-37
2021/11/16 07:43:58;;;;;;;;;;;;;;;31.82;66.49;100590.31;5072795;27;67116;-37
2021/11/16 07:46:35;;;;;;;;;;;;;;;31.84;66.79;100588.19;5054834;28;68452;-37
2021/11/16 07:49:12;;;;;;;;;;;;;;;31.85;66.79;100587.13;5071586;27;66040;-37
2021/11/16 07:51:59;;;;;;;;;;;;;;;31.86;66.81;100586.06;5073769;27;70677;-38
2021/11/16 07:54:33;;;;;;;;;;;;;;;31.87;66.84;100585.00;5073253;27;66216;-36
2021/11/16 07:57:14;;;;;;;;;;;;;;;31.88;66.39;100583.97;5072467;27;69843;-37
2021/11/16 07:59:54;;;;;;;;;;;;;;;31.76;66.36;100558.69;5073413;27;66340;-37
2021/11/16 08:02:34;;;;;;;;;;;;;;;31.91;66.52;100583.50;5075312;27;69700;-37
2021/11/16 08:05:20;;;;;;;;;;;;;;;31.92;66.51;100585.16;5068164;27;65694;-37
2021/11/16 08:11:06;;;;;;;;;;;;;;;31.94;66.18;100583.03;5070852;27;65456;-37
2021/11/16 08:14:00;;;;;;;;;;;;;;;31.94;66.34;100577.63;5072696;27;70078;-37
2021/11/16 08:16:51;;;;;;;;;;;;;;;31.96;66.48;100580.94;5069503;27;65587;-38
2021/11/16 08:19:30;;;;;;;;;;;;;;;31.95;66.41;100573.84;5071828;27;70568;-37
2021/11/16 08:22:24;;;;;;;;;;;;;;;31.96;66.32;100586.34;5076663;27;66707;-37
2021/11/16 08:24:56;;;;;;;;;;;;;;;31.97;66.26;100571.72;5076449;27;69851;-37
2021/11/16 08:27:37;;;;;;;;;;;;;;;31.98;66.49;100578.81;5077314;27;66628;-36
2021/11/16 08:30:19;;;;;;;;;;;;;;;31.99;66.19;100585.88;5075373;27;70051;-35
2021/11/16 08:32:54;;;;;;;;;;;;;;;32.01;66.41;100578.34;5075691;27;66138;-36
2021/11/16 08:35:27;;;;;;;;;;;;;;;32.01;66.11;100575.63;5076370;27;69457;-36
2021/11/16 08:38:05;;;;;;;;;;;;;;;32.03;66.22;100575.38;5065404;27;66251;-36
2021/11/16 08:40:37;;;;;;;;;;;;;;;32.03;66.21;100581.63;5073207;27;70455;-36
2021/11/16 08:43:17;;;;;;;;;;;;;;;32.04;66.48;100596.88;5077261;27;65507;-36
2021/11/16 08:45:58;;;;;;;;;;;;;;;32.04;66.09;100605.00;5075098;27;69478;-36
2021/11/16 08:48:35;;;;;;;;;;;;;;;32.05;65.92;100595.78;5074286;27;66285;-37
2021/11/16 08:51:08;;;;;;;;;;;;;;;32.07;66.14;100597.44;5076015;27;69549;-37
2021/11/16 08:53:39;;;;;;;;;;;;;;;32.07;66.04;100613.72;5076793;27;65697;-37
2021/11/16 08:56:16;;;;;;;;;;;;;;;32.08;66.03;100615.38;5077175;27;71046;-37
2021/11/16 08:59:14;;;;;;;;;;;;;;;32.08;66.02;100627.06;5072853;27;66734;-36
2021/11/16 09:02:13;;;;;;;;;;;;;;;32.10;65.92;100624.13;5076603;27;70030;-36
2021/11/16 09:04:43;;;;;;;;;;;;;;;32.10;65.92;100626.84;5066655;27;65530;-36
2021/11/16 09:07:25;;;;;;;;;;;;;;;32.11;66.12;100625.75;5074910;27;70250;-36
2021/11/16 09:10:02;;;;;;;;;;;;;;;32.11;65.75;100626.59;5074117;27;65700;-36
2021/11/16 09:12:43;;;;;;;;;;;;;;;32.12;65.86;100643.69;5074441;27;69988;-37
2021/11/16 09:15:22;;;;;;;;;;;;;;;32.12;65.98;100633.66;5076969;27;66349;-37
2021/11/16 09:18:06;;;;;;;;;;;;;;;32.12;65.78;100638.25;5073820;27;70314;-37
2021/11/16 09:20:37;;;;;;;;;;;;;;;32.14;65.89;100645.09;5075661;27;67537;-38
2021/11/16 09:23:08;;;;;;;;;;;;;;;32.08;65.90;100634.38;5077044;27;70246;-37
2021/11/16 09:25:39;;;;;;;;;;;;;;;32.15;66.02;100648.63;5076362;27;66584;-37
2021/11/16 09:28:44;;;;;;;;;;;;;;;32.13;65.79;100650.78;5076604;27;69955;-38
2021/11/16 09:31:25;;;;;;;;;;;;;;;32.14;65.78;100652.44;5075955;27;66412;-37
2021/11/16 09:33:58;;;;;;;;;;;;;;;32.16;65.90;100655.75;5073904;27;70188;-36
2021/11/16 09:36:33;;;;;;;;;;;;;;;32.15;65.66;100654.06;5077378;27;66702;-36
2021/11/16 09:39:17;;;;;;;;;;;;;;;32.15;65.80;100656.78;5074851;27;69345;-36
2021/11/16 09:41:49;;;;;;;;;;;;;;;32.14;65.73;100657.84;5076342;27;66358;-36
2021/11/16 09:44:27;;;;;;;;;;;;;;;32.15;66.02;100659.50;5076325;27;70472;-36
2021/11/16 09:46:59;;;;;;;;;;;;;;;32.15;66.00;100659.50;5074281;27;66799;-36
2021/11/16 09:49:37;;;;;;;;;;;;;;;32.14;65.94;100652.44;5075799;27;69937;-36
2021/11/16 09:52:09;;;;;;;;;;;;;;;32.12;65.50;100655.34;5072340;27;65789;-38
2021/11/16 09:54:49;;;;;;;;;;;;;;;32.13;65.67;100648.06;5074023;27;70706;-37
2021/11/16 09:57:23;;;;;;;;;;;;;;;32.12;65.66;100643.69;5075045;27;66430;-36
2021/11/16 10:00:01;;;;;;;;;;;;;;;32.11;65.98;100642.03;5074203;27;69969;-36
2021/11/16 10:02:32;;;;;;;;;;;;;;;32.11;66.10;100640.16;5075861;27;65995;-37
2021/11/16 10:05:06;;;;;;;;;;;;;;;32.10;65.85;100643.94;5074740;27;69880;-37
2021/11/16 10:07:36;;;;;;;;;;;;;;;32.09;65.90;100636.84;5072150;27;66527;-35
2021/11/16 10:10:07;;;;;;;;;;;;;;;32.09;65.80;100634.13;5075977;27;69851;-36
2021/11/16 10:12:38;;;;;;;;;;;;;;;32.07;65.94;100641.69;5073549;27;65679;-37
2021/11/16 10:15:13;;;;;;;;;;;;;;;32.07;65.67;100651.69;5076836;27;68828;-36
2021/11/16 10:17:47;;;;;;;;;;;;;;;32.05;65.63;100644.63;5072145;27;66948;-37
2021/11/16 10:20:20;;;;;;;;;;;;;;;32.05;65.53;100650.06;5075202;27;69509;-36
2021/11/16 10:23:11;;;;;;;;;;;;;;;32.02;66.08;100647.00;5072061;27;66068;-37
2021/11/16 10:25:49;;;;;;;;;;;;;;;32.02;66.09;100655.94;5075365;27;69063;-37
2021/11/16 10:28:19;;;;;;;;;;;;;;;31.97;65.86;100653.09;5074626;27;65832;-38
2021/11/16 10:30:50;;;;;;;;;;;;;;;32.00;66.12;100662.66;5070918;27;70008;-37
2021/11/16 10:33:25;;;;;;;;;;;;;;;31.98;66.04;100660.19;5077092;27;66484;-37
2021/11/16 10:35:57;;;;;;;;;;;;;;;31.98;66.12;100660.19;5073936;27;69027;-36
2021/11/16 10:38:44;;;;;;;;;;;;;;;31.97;65.97;100669.38;5072783;27;66021;-36
2021/11/16 10:41:16;;;;;;;;;;;;;;;31.98;66.32;100670.19;5072383;27;69830;-37
2021/11/16 10:43:49;;;;;;;;;;;;;;;31.96;65.89;100665.03;5069012;27;67027;-36
2021/11/16 10:46:20;;;;;;;;;;;;;;;31.95;66.24;100668.78;5079082;27;69522;-37
2021/11/16 10:48:54;;;;;;;;;;;;;;;31.95;66.37;100666.06;5077395;27;66252;-37
2021/11/16 10:51:30;;;;;;;;;;;;;;;31.95;66.42;100671.50;5078825;27;69495;-37
2021/11/16 10:54:01;;;;;;;;;;;;;;;31.95;66.72;100676.09;5075959;27;65658;-37
2021/11/16 10:56:36;;;;;;;;;;;;;;;31.93;66.62;100679.06;5076444;27;70019;-36
2021/11/16 10:59:14;;;;;;;;;;;;;;;31.93;66.28;100681.78;5074183;27;66447;-37
2021/11/16 11:01:49;;;;;;;;;;;;;;;31.92;66.87;100682.00;5077256;27;69442;-37
2021/11/16 11:04:22;;;;;;;;;;;;;;;31.92;66.93;100692.84;5076431;27;66490;-36
2021/11/16 11:06:54;;;;;;;;;;;;;;;31.90;66.80;100698.47;5057807;28;70474;-36
2021/11/16 11:09:25;;;;;;;;;;;;;;;31.88;66.56;100697.88;5074797;27;66169;-37
2021/11/16 11:11:55;;;;;;;;;;;;;;;31.89;66.86;100704.13;5072196;27;69520;-37
2021/11/16 11:14:33;;;;;;;;;;;;;;;31.87;67.06;100706.25;5076323;27;66442;-36
2021/11/16 11:17:05;;;;;;;;;;;;;;;31.86;66.81;100716.25;5073505;27;69667;-38
2021/11/16 11:19:38;;;;;;;;;;;;;;;31.85;66.84;100717.34;5075674;27;65246;-36
2021/11/16 11:22:23;;;;;;;;;;;;;;;31.85;67.09;100725.47;5073476;27;69031;-36
2021/11/16 11:27:43;;;;;;;;;;;;;;;31.81;67.58;100726.97;5072498;27;69909;-37
2021/11/16 11:30:14;;;;;;;;;;;;;;;31.80;67.25;100733.47;5074284;27;66247;-37
2021/11/16 11:32:46;;;;;;;;;;;;;;;31.79;67.21;100731.81;5074295;27;69509;-37
2021/11/16 11:35:18;;;;;;;;;;;;;;;31.77;67.45;100740.19;5074502;27;66096;-39
2021/11/16 11:37:49;;;;;;;;;;;;;;;31.78;67.83;100741.00;5073183;27;69734;-37
2021/11/16 11:40:25;;;;;;;;;;;;;;;31.76;67.71;100748.53;5071104;27;67069;-37
2021/11/16 11:42:59;;;;;;;;;;;;;;;31.76;68.02;100748.53;5070371;27;69988;-40
2021/11/16 11:45:33;;;;;;;;;;;;;;;31.72;67.80;100750.88;5048291;27;66421;-37
2021/11/16 11:48:04;;;;;;;;;;;;;;;31.73;67.86;100754.41;5052844;28;69106;-37
2021/11/16 11:50:36;;;;;;;;;;;;;;;31.74;67.89;100750.66;5071182;27;65963;-37
2021/11/16 11:53:07;;;;;;;;;;;;;;;31.76;68.19;100753.94;5035521;28;71131;-37
2021/11/16 11:55:41;;;;;;;;;;;;;;;31.56;68.83;100755.03;5055882;27;66341;-37
2021/11/16 11:58:14;;;;;;;;;;;;;;;31.34;69.24;100767.38;5076124;27;69518;-38
2021/11/16 12:00:45;;;;;;;;;;;;;;;31.01;67.99;100774.00;5076582;27;66845;-37
2021/11/16 12:03:18;;;;;;;;;;;;;;;30.60;66.36;100778.09;5079133;27;68743;-36
2021/11/16 12:05:49;;;;;;;;;;;;;;;30.27;65.23;100779.16;5075688;27;66357;-37
2021/11/16 12:08:20;;;;;;;;;;;;;;;30.18;63.74;100785.84;5080329;27;70235;-36
2021/11/16 12:10:51;;;;;;;;;;;;;;;30.11;63.91;100785.06;5062724;28;65479;-37
2021/11/16 12:13:26;;;;;;;;;;;;;;;30.12;63.64;100802.97;5079556;27;70095;-37
2021/11/16 12:16:08;;;;;;;;;;;;;;;30.11;63.44;100798.59;5063427;28;66606;-36
2021/11/16 12:18:41;;;;;;;;;;;;;;;30.13;63.26;100811.91;5072847;27;70025;-36
2021/11/16 12:21:35;;;;;;;;;;;;;;;30.08;62.25;100820.66;5073225;27;65681;-37
2021/11/16 12:24:18;;;;;;;;;;;;;;;30.06;62.03;100825.44;5059327;28;70727;-35
2021/11/16 12:26:52;;;;;;;;;;;;;;;30.05;61.44;100830.03;5078229;27;66531;-36
2021/11/16 12:29:26;;;;;;;;;;;;;;;30.04;61.06;100832.97;5075025;27;70411;-35
2021/11/16 12:32:16;;;;;;;;;;;;;;;30.01;60.81;100841.53;5076459;27;66245;-36
2021/11/16 12:34:50;;;;;;;;;;;;;;;29.96;60.44;100846.75;5077778;27;70205;-34
2021/11/16 12:37:49;;;;;;;;;;;;;;;29.89;59.53;100851.34;5080785;27;65254;-35
2021/11/16 12:40:21;;;;;;;;;;;;;;;29.78;58.86;100845.56;5072920;27;69421;-35
2021/11/16 12:43:07;;;;;;;;;;;;;;;29.73;60.06;100853.50;5080123;27;66481;-36
2021/11/16 12:46:12;;;;;;;;;;;;;;;29.71;59.89;100860.16;5078117;27;70267;-35
2021/11/16 12:48:50;;;;;;;;;;;;;;;29.64;58.70;100860.16;5076762;27;65725;-35
2021/11/16 12:51:58;;;;;;;;;;;;;;;29.60;58.89;100864.31;5074686;27;70248;-36
2021/11/16 12:54:36;;;;;;;;;;;;;;;29.57;59.39;100870.13;5078192;27;66640;-36
2021/11/16 12:57:17;;;;;;;;;;;;;;;29.52;58.76;100878.03;5080398;27;70577;-36
2021/11/16 12:59:49;;;;;;;;;;;;;;;29.47;58.48;100869.72;5078878;27;65644;-35
2021/11/16 13:02:28;;;;;;;;;;;;;;;29.38;57.48;100875.34;5079804;27;70573;-35
2021/11/16 13:05:11;;;;;;;;;;;;;;;29.32;56.04;100881.63;5079270;27;66191;-37
2021/11/16 13:07:54;;;;;;;;;;;;;;;29.24;55.15;100887.22;5074773;27;69568;-37
2021/11/16 13:10:49;;;;;;;;;;;;;;;29.15;54.92;100888.50;5083674;27;66437;-35
2021/11/16 13:13:46;;;;;;;;;;;;;;;29.01;54.70;100876.00;5077138;27;70005;-36
2021/11/16 13:16:24;;;;;;;;;;;;;;;29.01;54.88;100892.19;5064324;28;66183;-36
2021/11/16 13:19:13;;;;;;;;;;;;;;;28.98;54.36;100898.03;5078930;27;70268;-36
2021/11/16 13:22:38;;;;;;;;;;;;;;;28.94;53.95;100898.41;5045271;28;66033;-36
2021/11/16 13:25:38;;;;;;;;;;;;;;;28.92;53.54;100905.91;5076086;27;70274;-36
2021/11/16 13:31:17;;;;;;;;;;;;;;;28.88;55.61;100904.63;5077790;27;71029;-36
2021/11/16 13:34:13;;;;;;;;;;;;;;;28.85;54.63;100910.47;5077997;27;67608;-36
2021/11/16 13:37:29;;;;;;;;;;;;;;;28.81;53.93;100911.91;5077291;27;69961;-36
2021/11/16 13:40:27;;;;;;;;;;;;;;;28.79;53.60;100911.28;5075826;27;67341;-36
2021/11/16 13:43:37;;;;;;;;;;;;;;;28.66;53.57;100900.47;5087041;27;70494;-36
2021/11/16 13:46:27;;;;;;;;;;;;;;;28.76;53.47;100921.66;5077339;27;67413;-36
2021/11/16 13:49:00;;;;;;;;;;;;;;;28.69;53.07;100906.28;5055828;28;69426;-37
2021/11/16 13:51:35;;;;;;;;;;;;;;;28.72;53.46;100921.22;5078598;27;67284;-39
2021/11/16 13:54:07;;;;;;;;;;;;;;;28.71;54.58;100925.81;5071674;27;69136;-38
2021/11/16 13:57:06;;;;;;;;;;;;;;;28.75;54.17;100920.81;5077087;27;64957;-36
2021/11/16 13:59:55;;;;;;;;;;;;;;;28.72;52.98;100923.94;5070371;27;70148;-38
2021/11/16 14:02:54;;;;;;;;;;;;;;;28.69;53.02;100927.03;5071296;27;65811;-38